Terminal Aerodrome Forecast
Issued by NWS Mt. Holly, NJ

Current Version | Previous Version | Text Only | Print | Product List | Glossary On
Versions: 1 2 3 4 5 6 7 8 9 10 11 12 13 14 15 16 17 18 19 20 21 22 23 24 25 26 27 28 29 30 31 32 33 34 35 36 37 38 39 40 41 42 43 44 45 46 47 48 49 50
000
FTAK31 PANC 250535
TAFABE
TAF
PABE 250535Z 2506/2606 20017G24KT P6SM -SHRA SCT015 BKN025
      TEMPO 2506/2510 FEW015 SCT025 BKN040
     FM251200 19010KT 6SM -SHRASN SCT007 BKN015 OVC025
     FM251800 24016G23KT P6SM -SHRA SCT007 OVC015=

USA.gov is the U.S. government's official web portal to all federal, state and local government web resources and services.